PWSweather.com
Personal Weather Stations
Station Observations
COONRAPIDS
Minneapolis, MN 55433

Minneapolis, MN 55433

Lat: 45.187721, Lon: -93.36828

Elevation: 898

Station Type: Davis Vantage Pro 2

High Low Average
Temperature 28.3°F-2.1°C 15.6°F-9.1°C 20.7°F-6.3°C
Dew Point 22.4°F-5.3°C 10.2°F-12.1°C 13.7°F-10.2°C
Winds 9.2 mph 14.8 kmh Calm Calm 1.0 mph W1.6 kmh W
Wind Gusts 13.8 mph22.2 kmh -- 2.0 mph3.2 kmh
Humidity 88% 60% 74%
Pressure 30.24 in1024.0 mb 29.87 in1011.5 mb -
Precipitation 0.03 in0.8 mm - -
Hour Temp Dew Point Humidity Winds Wind Gusts Pressure Precip Precip Rate Daily Precip Total
01:10 AM 25.4°F-3.7°C 22.4°F-5.3°C 88% 9.2 mph N14.8 kmh N 13.8 mph22.2 kmh 29.87 in1011.5 mb - 0.00 in0.0 mm 0.00 in0.0 mm
01:20 AM 25.3°F-3.7°C 19.1°F-7.2°C 77% 1.2 mph NNE1.9 kmh NNE 6.9 mph11.1 kmh 29.88 in1011.9 mb - 0.00 in0.0 mm 0.00 in0.0 mm
01:30 AM 25.2°F-3.8°C 19.0°F-7.2°C 77% 2.3 mph N3.7 kmh N 3.5 mph5.6 kmh 29.88 in1011.9 mb - 0.00 in0.0 mm 0.00 in0.0 mm
01:40 AM 25.1°F-3.8°C 19.2°F-7.1°C 78% 1.2 mph NW1.9 kmh NW 2.3 mph3.7 kmh 29.88 in1011.9 mb - 0.00 in0.0 mm 0.00 in0.0 mm
01:50 AM 25.0°F-3.9°C 19.1°F-7.2°C 78% Calm Calm -- 29.88 in1011.9 mb - 0.00 in0.0 mm 0.00 in0.0 mm
02:00 AM 24.9°F-3.9°C 19.0°F-7.2°C 78% 1.2 mph N1.9 kmh N 6.9 mph11.1 kmh 29.89 in1012.2 mb - 0.00 in0.0 mm 0.00 in0.0 mm
02:10 AM 24.8°F-4.0°C 18.6°F-7.4°C 77% Calm Calm -- 29.89 in1012.2 mb - 0.00 in0.0 mm 0.00 in0.0 mm
02:20 AM 24.6°F-4.1°C 18.4°F-7.6°C 77% 3.5 mph N5.6 kmh N 4.6 mph7.4 kmh 29.89 in1012.2 mb - 0.00 in0.0 mm 0.00 in0.0 mm
02:30 AM 24.0°F-4.4°C 17.5°F-8.1°C 76% 3.5 mph N5.6 kmh N 5.8 mph9.3 kmh 29.89 in1012.2 mb - 0.00 in0.0 mm 0.00 in0.0 mm
02:40 AM 23.4°F-4.8°C 17.0°F-8.3°C 76% 1.2 mph NNE1.9 kmh NNE 3.5 mph5.6 kmh 29.90 in1012.5 mb - 0.00 in0.0 mm 0.00 in0.0 mm
02:50 AM 22.8°F-5.1°C 16.4°F-8.7°C 76% 1.2 mph N1.9 kmh N 3.5 mph5.6 kmh 29.90 in1012.5 mb - 0.00 in0.0 mm 0.00 in0.0 mm
03:00 AM 22.5°F-5.3°C 16.1°F-8.8°C 76% Calm Calm 2.3 mph3.7 kmh 29.90 in1012.5 mb - 0.00 in0.0 mm 0.00 in0.0 mm
03:10 AM 22.1°F-5.5°C 15.7°F-9.1°C 76% 3.5 mph NNE5.6 kmh NNE 6.9 mph11.1 kmh 29.91 in1012.9 mb - 0.00 in0.0 mm 0.00 in0.0 mm
03:20 AM 21.9°F-5.6°C 15.5°F-9.2°C 76% 3.5 mph N5.6 kmh N 4.6 mph7.4 kmh 29.91 in1012.9 mb - 0.00 in0.0 mm 0.00 in0.0 mm
03:30 AM 21.4°F-5.9°C 15.1°F-9.4°C 76% 2.3 mph N3.7 kmh N 5.8 mph9.3 kmh 29.91 in1012.9 mb - 0.00 in0.0 mm 0.00 in0.0 mm
03:40 AM 21.1°F-6.1°C 14.7°F-9.6°C 76% 1.2 mph NNW1.9 kmh NNW 3.5 mph5.6 kmh 29.92 in1013.2 mb - 0.00 in0.0 mm 0.00 in0.0 mm
03:50 AM 20.8°F-6.2°C 14.7°F-9.6°C 77% Calm Calm -- 29.92 in1013.2 mb - 0.00 in0.0 mm 0.00 in0.0 mm
04:00 AM 20.4°F-6.4°C 14.4°F-9.8°C 77% 1.2 mph N1.9 kmh N 3.5 mph5.6 kmh 29.93 in1013.5 mb - 0.00 in0.0 mm 0.00 in0.0 mm
04:10 AM 20.2°F-6.6°C 14.4°F-9.8°C 78% 1.2 mph N1.9 kmh N 3.5 mph5.6 kmh 29.93 in1013.5 mb - 0.00 in0.0 mm 0.00 in0.0 mm
04:20 AM 20.1°F-6.6°C 14.3°F-9.8°C 78% Calm Calm 3.5 mph5.6 kmh 29.93 in1013.5 mb - 0.00 in0.0 mm 0.00 in0.0 mm
04:30 AM 20.0°F-6.7°C 13.9°F-10.1°C 77% Calm Calm 1.2 mph1.9 kmh 29.93 in1013.5 mb - 0.00 in0.0 mm 0.00 in0.0 mm
04:40 AM 19.6°F-6.9°C 13.9°F-10.1°C 78% Calm Calm -- 29.93 in1013.5 mb - 0.00 in0.0 mm 0.00 in0.0 mm
04:50 AM 19.3°F-7.1°C 13.6°F-10.2°C 78% Calm Calm -- 29.94 in1013.9 mb - 0.00 in0.0 mm 0.00 in0.0 mm
05:00 AM 19.1°F-7.2°C 13.7°F-10.2°C 79% 1.2 mph N1.9 kmh N 4.6 mph7.4 kmh 29.94 in1013.9 mb - 0.00 in0.0 mm 0.00 in0.0 mm
05:10 AM 19.2°F-7.1°C 13.8°F-10.1°C 79% Calm Calm 3.5 mph5.6 kmh 29.94 in1013.9 mb - 0.00 in0.0 mm 0.00 in0.0 mm
05:20 AM 19.1°F-7.2°C 13.7°F-10.2°C 79% Calm Calm -- 29.95 in1014.2 mb - 0.00 in0.0 mm 0.00 in0.0 mm
05:30 AM 18.9°F-7.3°C 13.5°F-10.3°C 79% Calm Calm 2.3 mph3.7 kmh 29.96 in1014.6 mb - 0.00 in0.0 mm 0.00 in0.0 mm
05:40 AM 18.7°F-7.4°C 13.3°F-10.4°C 79% Calm Calm -- 29.96 in1014.6 mb - 0.00 in0.0 mm 0.00 in0.0 mm
05:50 AM 18.5°F-7.5°C 13.0°F-10.6°C 79% 1.2 mph N1.9 kmh N 3.5 mph5.6 kmh 29.97 in1014.9 mb - 0.00 in0.0 mm 0.00 in0.0 mm
06:00 AM 18.3°F-7.6°C 12.9°F-10.6°C 79% Calm Calm 3.5 mph5.6 kmh 29.97 in1014.9 mb - 0.00 in0.0 mm 0.00 in0.0 mm
06:10 AM 18.2°F-7.7°C 13.1°F-10.5°C 80% Calm Calm 1.2 mph1.9 kmh 29.98 in1015.2 mb - 0.00 in0.0 mm 0.00 in0.0 mm
06:20 AM 17.9°F-7.8°C 12.8°F-10.7°C 80% Calm Calm -- 29.98 in1015.2 mb - 0.00 in0.0 mm 0.00 in0.0 mm
06:30 AM 17.6°F-8.0°C 12.5°F-10.8°C 80% Calm Calm -- 29.99 in1015.6 mb - 0.00 in0.0 mm 0.00 in0.0 mm
06:40 AM 17.3°F-8.2°C 12.2°F-11.0°C 80% Calm Calm -- 29.99 in1015.6 mb - 0.00 in0.0 mm 0.00 in0.0 mm
06:50 AM 17.4°F-8.1°C 12.5°F-10.8°C 81% Calm Calm -- 30.00 in1015.9 mb - 0.00 in0.0 mm 0.00 in0.0 mm
07:00 AM 17.6°F-8.0°C 12.7°F-10.7°C 81% 1.2 mph N1.9 kmh N 3.5 mph5.6 kmh 30.00 in1015.9 mb - 0.00 in0.0 mm 0.00 in0.0 mm
07:10 AM 17.6°F-8.0°C 12.5°F-10.8°C 80% Calm Calm -- 30.01 in1016.3 mb - 0.00 in0.0 mm 0.00 in0.0 mm
07:20 AM 17.5°F-8.1°C 12.4°F-10.9°C 80% Calm Calm -- 30.01 in1016.3 mb - 0.00 in0.0 mm 0.00 in0.0 mm
07:30 AM 17.3°F-8.2°C 12.2°F-11.0°C 80% Calm Calm -- 30.02 in1016.6 mb - 0.00 in0.0 mm 0.00 in0.0 mm
07:40 AM 17.6°F-8.0°C 12.8°F-10.7°C 81% Calm Calm -- 30.03 in1016.9 mb - 0.00 in0.0 mm 0.00 in0.0 mm
07:50 AM 17.8°F-7.9°C 13.0°F-10.6°C 81% Calm Calm 3.5 mph5.6 kmh 30.03 in1016.9 mb - 0.00 in0.0 mm 0.00 in0.0 mm
08:00 AM 18.0°F-7.8°C 12.9°F-10.6°C 80% 1.2 mph N1.9 kmh N 3.5 mph5.6 kmh 30.03 in1016.9 mb - 0.00 in0.0 mm 0.00 in0.0 mm
08:10 AM 17.9°F-7.8°C 12.5°F-10.8°C 79% 2.3 mph NNW3.7 kmh NNW 3.5 mph5.6 kmh 30.03 in1016.9 mb - 0.00 in0.0 mm 0.00 in0.0 mm
08:20 AM 17.5°F-8.1°C 12.1°F-11.1°C 79% 1.2 mph N1.9 kmh N 5.8 mph9.3 kmh 30.04 in1017.3 mb - 0.00 in0.0 mm 0.00 in0.0 mm
08:30 AM 17.1°F-8.3°C 11.7°F-11.3°C 79% 3.5 mph NW5.6 kmh NW 6.9 mph11.1 kmh 30.04 in1017.3 mb - 0.00 in0.0 mm 0.00 in0.0 mm
08:40 AM 16.8°F-8.4°C 11.4°F-11.4°C 79% 2.3 mph N3.7 kmh N 4.6 mph7.4 kmh 30.04 in1017.3 mb - 0.00 in0.0 mm 0.00 in0.0 mm
08:50 AM 16.4°F-8.7°C 11.0°F-11.7°C 79% 2.3 mph N3.7 kmh N 4.6 mph7.4 kmh 30.04 in1017.3 mb - 0.00 in0.0 mm 0.00 in0.0 mm
09:00 AM 16.1°F-8.8°C 10.7°F-11.8°C 79% 1.2 mph N1.9 kmh N 4.6 mph7.4 kmh 30.04 in1017.3 mb - 0.00 in0.0 mm 0.00 in0.0 mm
09:10 AM 15.7°F-9.1°C 10.3°F-12.1°C 79% Calm Calm -- 30.05 in1017.6 mb - 0.00 in0.0 mm 0.00 in0.0 mm
09:20 AM 15.6°F-9.1°C 10.2°F-12.1°C 79% Calm Calm 3.5 mph5.6 kmh 30.05 in1017.6 mb - 0.00 in0.0 mm 0.00 in0.0 mm
09:30 AM 15.8°F-9.0°C 10.7°F-11.8°C 80% Calm Calm 1.2 mph1.9 kmh 30.05 in1017.6 mb - 0.00 in0.0 mm 0.00 in0.0 mm
09:40 AM 15.8°F-9.0°C 10.4°F-12.0°C 79% Calm Calm 3.5 mph5.6 kmh 30.05 in1017.6 mb - 0.00 in0.0 mm 0.00 in0.0 mm
09:50 AM 15.8°F-9.0°C 10.4°F-12.0°C 79% Calm Calm -- 30.06 in1017.9 mb - 0.00 in0.0 mm 0.00 in0.0 mm
10:00 AM 16.3°F-8.7°C 10.6°F-11.9°C 78% 1.2 mph NW1.9 kmh NW 4.6 mph7.4 kmh 30.06 in1017.9 mb - 0.00 in0.0 mm 0.00 in0.0 mm
10:10 AM 16.6°F-8.6°C 10.3°F-12.1°C 76% 1.2 mph N1.9 kmh N 3.5 mph5.6 kmh 30.06 in1017.9 mb - 0.00 in0.0 mm 0.00 in0.0 mm
10:20 AM 16.7°F-8.5°C 10.5°F-11.9°C 76% 2.3 mph N3.7 kmh N 3.5 mph5.6 kmh 30.07 in1018.3 mb - 0.00 in0.0 mm 0.00 in0.0 mm
10:30 AM 17.3°F-8.2°C 10.7°F-11.8°C 75% 2.3 mph NNE3.7 kmh NNE 3.5 mph5.6 kmh 30.07 in1018.3 mb - 0.00 in0.0 mm 0.00 in0.0 mm
10:40 AM 17.3°F-8.2°C 10.4°F-12.0°C 74% 1.2 mph NNW1.9 kmh NNW 2.3 mph3.7 kmh 30.08 in1018.6 mb - 0.00 in0.0 mm 0.00 in0.0 mm
10:50 AM 17.6°F-8.0°C 10.7°F-11.8°C 74% 2.3 mph NW3.7 kmh NW 5.8 mph9.3 kmh 30.08 in1018.6 mb - 0.00 in0.0 mm 0.00 in0.0 mm
11:00 AM 17.5°F-8.1°C 10.3°F-12.1°C 73% 2.3 mph NNW3.7 kmh NNW 6.9 mph11.1 kmh 30.08 in1018.6 mb - 0.00 in0.0 mm 0.00 in0.0 mm
11:10 AM 17.8°F-7.9°C 10.6°F-11.9°C 73% 1.2 mph NNW1.9 kmh NNW 3.5 mph5.6 kmh 30.09 in1019.0 mb - 0.00 in0.0 mm 0.00 in0.0 mm
11:20 AM 18.3°F-7.6°C 11.1°F-11.6°C 73% 1.2 mph N1.9 kmh N 3.5 mph5.6 kmh 30.09 in1019.0 mb - 0.00 in0.0 mm 0.00 in0.0 mm
11:30 AM 18.9°F-7.3°C 11.4°F-11.4°C 72% 1.2 mph N1.9 kmh N 3.5 mph5.6 kmh 30.09 in1019.0 mb - 0.00 in0.0 mm 0.00 in0.0 mm
11:40 AM 19.3°F-7.1°C 11.7°F-11.3°C 72% 2.3 mph NNE3.7 kmh NNE 3.5 mph5.6 kmh 30.09 in1019.0 mb - 0.00 in0.0 mm 0.00 in0.0 mm
11:50 AM 19.8°F-6.8°C 11.9°F-11.2°C 71% 1.2 mph N1.9 kmh N 3.5 mph5.6 kmh 30.09 in1019.0 mb - 0.00 in0.0 mm 0.00 in0.0 mm
12:00 PM 20.1°F-6.6°C 12.2°F-11.0°C 71% 2.3 mph NNE3.7 kmh NNE 2.3 mph3.7 kmh 30.10 in1019.3 mb - 0.00 in0.0 mm 0.00 in0.0 mm
12:10 PM 20.6°F-6.3°C 12.3°F-10.9°C 70% 3.5 mph NW5.6 kmh NW 6.9 mph11.1 kmh 30.10 in1019.3 mb - 0.00 in0.0 mm 0.00 in0.0 mm
12:20 PM 21.2°F-6.0°C 12.6°F-10.8°C 69% 1.2 mph NW1.9 kmh NW 3.5 mph5.6 kmh 30.10 in1019.3 mb - 0.00 in0.0 mm 0.00 in0.0 mm
12:30 PM 21.6°F-5.8°C 12.7°F-10.7°C 68% 3.5 mph NNW5.6 kmh NNW 3.5 mph5.6 kmh 30.10 in1019.3 mb - 0.00 in0.0 mm 0.00 in0.0 mm
12:40 PM 22.5°F-5.3°C 13.8°F-10.1°C 69% 2.3 mph NNW3.7 kmh NNW 5.8 mph9.3 kmh 30.10 in1019.3 mb - 0.00 in0.0 mm 0.00 in0.0 mm
12:50 PM 23.5°F-4.7°C 14.1°F-9.9°C 67% 3.5 mph NW5.6 kmh NW 5.8 mph9.3 kmh 30.10 in1019.3 mb - 0.00 in0.0 mm 0.00 in0.0 mm
01:00 PM 23.3°F-4.8°C 13.6°F-10.2°C 66% 1.2 mph N1.9 kmh N 4.6 mph7.4 kmh 30.10 in1019.3 mb - 0.00 in0.0 mm 0.00 in0.0 mm
01:10 PM 23.7°F-4.6°C 14.0°F-10.0°C 66% 2.3 mph NW3.7 kmh NW 4.6 mph7.4 kmh 30.11 in1019.6 mb - 0.01 in0.3 mm 0.01 in0.3 mm
01:20 PM 24.1°F-4.4°C 14.4°F-9.8°C 66% 3.5 mph WNW5.6 kmh WNW 5.8 mph9.3 kmh 30.11 in1019.6 mb - 0.00 in0.0 mm 0.01 in0.3 mm
01:30 PM 24.4°F-4.2°C 14.3°F-9.8°C 65% 3.5 mph NW5.6 kmh NW 4.6 mph7.4 kmh 30.11 in1019.6 mb - 0.00 in0.0 mm 0.01 in0.3 mm
01:40 PM 24.9°F-3.9°C 14.4°F-9.8°C 64% 1.2 mph NNW1.9 kmh NNW 4.6 mph7.4 kmh 30.11 in1019.6 mb - 0.01 in0.3 mm 0.02 in0.5 mm
01:50 PM 25.5°F-3.6°C 15.0°F-9.4°C 64% 3.5 mph NW5.6 kmh NW 5.8 mph9.3 kmh 30.11 in1019.6 mb - 0.01 in0.3 mm 0.03 in0.8 mm
02:00 PM 25.7°F-3.5°C 15.2°F-9.3°C 64% 1.2 mph NNW1.9 kmh NNW 5.8 mph9.3 kmh 30.11 in1019.6 mb - 0.00 in0.0 mm 0.03 in0.8 mm
02:10 PM 26.2°F-3.2°C 15.3°F-9.3°C 63% 2.3 mph N3.7 kmh N 3.5 mph5.6 kmh 30.11 in1019.6 mb - 0.00 in0.0 mm 0.03 in0.8 mm
02:20 PM 26.7°F-2.9°C 16.1°F-8.8°C 64% 2.3 mph W3.7 kmh W 4.6 mph7.4 kmh 30.11 in1019.6 mb - 0.00 in0.0 mm 0.03 in0.8 mm
02:30 PM 27.1°F-2.7°C 16.5°F-8.6°C 64% 1.2 mph NW1.9 kmh NW 3.5 mph5.6 kmh 30.10 in1019.3 mb - 0.00 in0.0 mm 0.03 in0.8 mm
02:40 PM 27.2°F-2.7°C 16.2°F-8.8°C 63% 1.2 mph NW1.9 kmh NW 2.3 mph3.7 kmh 30.11 in1019.6 mb - 0.00 in0.0 mm 0.03 in0.8 mm
02:50 PM 27.2°F-2.7°C 15.9°F-8.9°C 62% 1.2 mph NW1.9 kmh NW 6.9 mph11.1 kmh 30.11 in1019.6 mb - 0.00 in0.0 mm 0.03 in0.8 mm
03:00 PM 27.0°F-2.8°C 16.1°F-8.8°C 63% 1.2 mph NNW1.9 kmh NNW 4.6 mph7.4 kmh 30.11 in1019.6 mb - 0.00 in0.0 mm 0.03 in0.8 mm
03:10 PM 27.3°F-2.6°C 16.4°F-8.7°C 63% Calm Calm -- 30.11 in1019.6 mb - 0.00 in0.0 mm 0.03 in0.8 mm
03:20 PM 27.7°F-2.4°C 16.7°F-8.5°C 63% 1.2 mph NNW1.9 kmh NNW 4.6 mph7.4 kmh 30.11 in1019.6 mb - 0.00 in0.0 mm 0.03 in0.8 mm
03:30 PM 28.1°F-2.2°C 16.7°F-8.5°C 62% 1.2 mph NW1.9 kmh NW -- 30.12 in1020.0 mb - 0.00 in0.0 mm 0.03 in0.8 mm
03:40 PM 27.9°F-2.3°C 16.2°F-8.8°C 61% 1.2 mph NW1.9 kmh NW 3.5 mph5.6 kmh 30.12 in1020.0 mb - 0.00 in0.0 mm 0.03 in0.8 mm
03:50 PM 27.9°F-2.3°C 16.2°F-8.8°C 61% 3.5 mph NW5.6 kmh NW 4.6 mph7.4 kmh 30.12 in1020.0 mb - 0.00 in0.0 mm 0.03 in0.8 mm
04:00 PM 28.1°F-2.2°C 16.0°F-8.9°C 60% 1.2 mph NW1.9 kmh NW 3.5 mph5.6 kmh 30.12 in1020.0 mb - 0.00 in0.0 mm 0.03 in0.8 mm
04:10 PM 28.3°F-2.1°C 16.6°F-8.6°C 61% Calm Calm 3.5 mph5.6 kmh 30.12 in1020.0 mb - 0.00 in0.0 mm 0.03 in0.8 mm
04:20 PM 28.0°F-2.2°C 16.3°F-8.7°C 61% Calm Calm -- 30.13 in1020.3 mb - 0.00 in0.0 mm 0.03 in0.8 mm
04:30 PM 27.5°F-2.5°C 15.8°F-9.0°C 61% 2.3 mph NW3.7 kmh NW 3.5 mph5.6 kmh 30.13 in1020.3 mb - 0.00 in0.0 mm 0.03 in0.8 mm
04:40 PM 27.2°F-2.7°C 15.6°F-9.1°C 61% Calm Calm -- 30.13 in1020.3 mb - 0.00 in0.0 mm 0.03 in0.8 mm
04:50 PM 27.1°F-2.7°C 15.4°F-9.2°C 61% Calm Calm -- 30.14 in1020.7 mb - 0.00 in0.0 mm 0.03 in0.8 mm
05:00 PM 26.9°F-2.8°C 15.6°F-9.1°C 62% Calm Calm 5.8 mph9.3 kmh 30.14 in1020.7 mb - 0.00 in0.0 mm 0.03 in0.8 mm
05:10 PM 26.8°F-2.9°C 15.5°F-9.2°C 62% 2.3 mph WNW3.7 kmh WNW 5.8 mph9.3 kmh 30.15 in1021.0 mb - 0.00 in0.0 mm 0.03 in0.8 mm
05:20 PM 26.5°F-3.1°C 15.2°F-9.3°C 62% Calm Calm 1.2 mph1.9 kmh 30.15 in1021.0 mb - 0.00 in0.0 mm 0.03 in0.8 mm
05:30 PM 26.1°F-3.3°C 15.2°F-9.3°C 63% Calm Calm -- 30.15 in1021.0 mb - 0.00 in0.0 mm 0.03 in0.8 mm
05:40 PM 25.7°F-3.5°C 14.8°F-9.6°C 63% Calm Calm -- 30.16 in1021.3 mb - 0.00 in0.0 mm 0.03 in0.8 mm
05:50 PM 25.3°F-3.7°C 14.8°F-9.6°C 64% Calm Calm -- 30.17 in1021.7 mb - 0.00 in0.0 mm 0.03 in0.8 mm
06:00 PM 25.0°F-3.9°C 14.5°F-9.7°C 64% Calm Calm -- 30.17 in1021.7 mb - 0.00 in0.0 mm 0.03 in0.8 mm
06:10 PM 24.4°F-4.2°C 14.3°F-9.8°C 65% Calm Calm -- 30.17 in1021.7 mb - 0.00 in0.0 mm 0.03 in0.8 mm
06:20 PM 23.8°F-4.6°C 14.8°F-9.6°C 68% Calm Calm -- 30.17 in1021.7 mb - 0.00 in0.0 mm 0.03 in0.8 mm
06:30 PM 23.1°F-4.9°C 14.4°F-9.8°C 69% Calm Calm -- 30.17 in1021.7 mb - 0.00 in0.0 mm 0.03 in0.8 mm
06:40 PM 22.4°F-5.3°C 14.4°F-9.8°C 71% Calm Calm -- 30.17 in1021.7 mb - 0.00 in0.0 mm 0.03 in0.8 mm
06:50 PM 21.6°F-5.8°C 13.9°F-10.1°C 72% Calm Calm -- 30.18 in1022.0 mb - 0.00 in0.0 mm 0.03 in0.8 mm
07:00 PM 21.1°F-6.1°C 13.7°F-10.2°C 73% Calm Calm -- 30.18 in1022.0 mb - 0.00 in0.0 mm 0.03 in0.8 mm
07:10 PM 20.5°F-6.4°C 13.6°F-10.2°C 74% Calm Calm -- 30.18 in1022.0 mb - 0.00 in0.0 mm 0.03 in0.8 mm
07:20 PM 20.0°F-6.7°C 13.3°F-10.4°C 75% Calm Calm -- 30.18 in1022.0 mb - 0.00 in0.0 mm 0.03 in0.8 mm
07:30 PM 19.7°F-6.8°C 13.4°F-10.3°C 76% Calm Calm -- 30.18 in1022.0 mb - 0.00 in0.0 mm 0.03 in0.8 mm
07:40 PM 19.4°F-7.0°C 13.1°F-10.5°C 76% Calm Calm -- 30.19 in1022.4 mb - 0.00 in0.0 mm 0.03 in0.8 mm
07:50 PM 19.1°F-7.2°C 13.1°F-10.5°C 77% Calm Calm -- 30.19 in1022.4 mb - 0.00 in0.0 mm 0.03 in0.8 mm
08:00 PM 19.0°F-7.2°C 13.3°F-10.4°C 78% Calm Calm -- 30.19 in1022.4 mb - 0.00 in0.0 mm 0.03 in0.8 mm
08:10 PM 18.8°F-7.3°C 13.1°F-10.5°C 78% Calm Calm -- 30.20 in1022.7 mb - 0.00 in0.0 mm 0.03 in0.8 mm
08:20 PM 18.7°F-7.4°C 13.3°F-10.4°C 79% Calm Calm -- 30.20 in1022.7 mb - 0.00 in0.0 mm 0.03 in0.8 mm
08:30 PM 18.6°F-7.4°C 13.2°F-10.4°C 79% Calm Calm -- 30.20 in1022.7 mb - 0.00 in0.0 mm 0.03 in0.8 mm
08:40 PM 18.5°F-7.5°C 13.1°F-10.5°C 79% Calm Calm -- 30.20 in1022.7 mb - 0.00 in0.0 mm 0.03 in0.8 mm
08:50 PM 18.4°F-7.6°C 13.3°F-10.4°C 80% Calm Calm -- 30.20 in1022.7 mb - 0.00 in0.0 mm 0.03 in0.8 mm
09:00 PM 18.2°F-7.7°C 13.1°F-10.5°C 80% Calm Calm -- 30.20 in1022.7 mb - 0.00 in0.0 mm 0.03 in0.8 mm
09:10 PM 18.1°F-7.7°C 13.0°F-10.6°C 80% Calm Calm -- 30.20 in1022.7 mb - 0.00 in0.0 mm 0.03 in0.8 mm
09:20 PM 17.9°F-7.8°C 12.8°F-10.7°C 80% Calm Calm -- 30.20 in1022.7 mb - 0.00 in0.0 mm 0.03 in0.8 mm
09:30 PM 17.8°F-7.9°C 13.0°F-10.6°C 81% Calm Calm -- 30.21 in1023.0 mb - 0.00 in0.0 mm 0.03 in0.8 mm
09:40 PM 17.8°F-7.9°C 13.0°F-10.6°C 81% Calm Calm -- 30.21 in1023.0 mb - 0.00 in0.0 mm 0.03 in0.8 mm
09:50 PM 17.7°F-7.9°C 12.9°F-10.6°C 81% Calm Calm -- 30.22 in1023.4 mb - 0.00 in0.0 mm 0.03 in0.8 mm
10:00 PM 17.5°F-8.1°C 12.7°F-10.7°C 81% Calm Calm -- 30.22 in1023.4 mb - 0.00 in0.0 mm 0.03 in0.8 mm
10:10 PM 17.3°F-8.2°C 12.5°F-10.8°C 81% Calm Calm -- 30.22 in1023.4 mb - 0.00 in0.0 mm 0.03 in0.8 mm
10:20 PM 17.2°F-8.2°C 12.4°F-10.9°C 81% Calm Calm -- 30.22 in1023.4 mb - 0.00 in0.0 mm 0.03 in0.8 mm
10:30 PM 17.1°F-8.3°C 12.3°F-10.9°C 81% Calm Calm -- 30.23 in1023.7 mb - 0.00 in0.0 mm 0.03 in0.8 mm
10:40 PM 16.9°F-8.4°C 12.1°F-11.1°C 81% Calm Calm -- 30.22 in1023.4 mb - 0.00 in0.0 mm 0.03 in0.8 mm
10:50 PM 16.7°F-8.5°C 12.2°F-11.0°C 82% Calm Calm -- 30.22 in1023.4 mb - 0.00 in0.0 mm 0.03 in0.8 mm
11:00 PM 16.6°F-8.6°C 12.1°F-11.1°C 82% Calm Calm -- 30.22 in1023.4 mb - 0.00 in0.0 mm 0.03 in0.8 mm
11:10 PM 16.7°F-8.5°C 12.2°F-11.0°C 82% Calm Calm -- 30.23 in1023.7 mb - 0.00 in0.0 mm 0.03 in0.8 mm
11:20 PM 16.8°F-8.4°C 12.3°F-10.9°C 82% Calm Calm -- 30.23 in1023.7 mb - 0.00 in0.0 mm 0.03 in0.8 mm
11:30 PM 17.0°F-8.3°C 12.5°F-10.8°C 82% Calm Calm -- 30.23 in1023.7 mb - 0.00 in0.0 mm 0.03 in0.8 mm
11:40 PM 17.0°F-8.3°C 12.5°F-10.8°C 82% Calm Calm -- 30.23 in1023.7 mb - 0.00 in0.0 mm 0.03 in0.8 mm
11:50 PM 17.0°F-8.3°C 12.4°F-10.9°C 82% Calm Calm -- 30.23 in1023.7 mb - 0.00 in0.0 mm 0.03 in0.8 mm